首页
METAR-TAF:

METAR-TAF

机场 :

Sudbury, 安大略省, 加拿大

纬度: 46-37N, 经度: 080-48W, 海拔: 348米

当前天气观测

该预报发布于48分钟前的16:00 UTC
风速9节,风向西,在西南西转西北之间变化
温度 20°C
湿度 73%
气压 1012 hPa
能見度: 32.2公里
多云层高于2600英尺

METAR: CYSB 261600Z 27009KT 230V300 20SM BKN026 20/15 A2988 RMK CU7 SLP121 DENSITY ALT 2100FT

时间: 12:48 (16:48 UTC)

预报

该预报发布于3小时和10分钟前的13:38 UTC
预报有效从26日的 14点(UTC)到 27日的 02点(UTC)
风速12节,风向西
能見度: 10公里
散云层高于3000英尺
多云层高于20000英尺
短暂存在
从 26日的 14点(UTC)到 26日的 17点(UTC)
多云层高于2000英尺
从 26日的 1700点(UTC)
风速12节,风向西,有时为22节阵风
能見度: 10公里
多云层高于5000英尺
短暂存在
从 26日的 17点(UTC)到 26日的 24点(UTC)
能見度: 8.0公里
多云层高于2000英尺
小阵雨, 轻雾
几率 30%
从 26日的 19点(UTC)到 26日的 23点(UTC)
能見度: 3.2公里
多云层高于5000英尺, 积雨云.
雷暴, 大雨, 轻雾
从 27日的 0000点(UTC)
风速10节,风向西
能見度: 10公里
天空无云

TAF: CYSB 261338Z 2614/2702 26012KT P6SM SCT030 BKN200 TEMPO 2614/2617 BKN020 FM261700 26012G22KT P6SM BKN050 TEMPO 2617/2624 5SM -SHRA BR BKN020 PROB30 2619/2623 2SM +TSRA BR BKN050CB FM270000 26010KT P6SM SKC RMK NXT FCST BY 262000Z

超过4000个机场的气象观测和天气预报(METAR&TAF报告)。

可查询的气象台以黄色和红色小点在地图上表示。

将鼠标移到小点上方,可查看气象台名称。

然后点击查看天气观测和预报。

如需切换地图:点击带黑十字的绿色按钮放大地图;点击带横线的绿色按钮缩小地图;或者点击绿色箭头查看邻近地区的地图。


METAR-TAF: